Time;durP1;ratioP1;P1;durP2;ratioP2;P2;SDS_P1;SDS_P2;PMS_P1;PMS_P2;Temp;Humidity;BMP_temperature;BMP_pressure;BME280_temperature;BME280_humidity;BME280_pressure;Samples;Min_cycle;Max_cycle;Signal;HPM_P1;HPM_P2
2021/10/23 00:01:48;;;;;;;1.17;0.50;;;6.50;95.70;;;;;;5011298;28;20120;-78
2021/10/23 00:04:15;;;;;;;1.30;0.43;;;6.60;95.80;;;;;;5009686;28;20041;-78
2021/10/23 00:06:42;;;;;;;2.15;0.70;;;6.60;95.70;;;;;;5023467;28;20046;-78
2021/10/23 00:09:09;;;;;;;1.45;0.47;;;6.60;95.70;;;;;;5022225;28;20125;-77
2021/10/23 00:11:36;;;;;;;1.98;1.05;;;6.70;95.70;;;;;;5017688;28;20506;-78
2021/10/23 00:14:03;;;;;;;1.60;0.52;;;6.70;95.70;;;;;;5018317;28;20044;-78
2021/10/23 00:16:30;;;;;;;1.27;0.47;;;6.80;95.70;;;;;;5006682;28;20058;-78
2021/10/23 00:18:59;;;;;;;1.58;0.43;;;6.80;95.60;;;;;;5023495;28;20030;-78
2021/10/23 00:21:27;;;;;;;3.05;0.60;;;6.80;95.60;;;;;;5024588;28;20068;-79
2021/10/23 00:23:54;;;;;;;3.00;0.50;;;6.80;95.60;;;;;;5019879;28;20037;-78
2021/10/23 00:26:21;;;;;;;1.58;0.45;;;6.80;95.60;;;;;;5020648;28;20096;-78
2021/10/23 00:28:48;;;;;;;2.00;0.50;;;6.90;95.60;;;;;;5020093;28;20124;-78
2021/10/23 00:31:15;;;;;;;1.30;0.50;;;6.90;95.60;;;;;;5017740;28;20125;-78
2021/10/23 00:33:43;;;;;;;2.03;0.65;;;7.00;95.60;;;;;;5034810;28;20046;-77
2021/10/23 00:36:10;;;;;;;1.73;0.70;;;7.00;95.60;;;;;;5010995;28;20041;-79
2021/10/23 00:38:37;;;;;;;1.60;0.90;;;7.00;95.50;;;;;;5022161;28;20092;-78
2021/10/23 00:41:04;;;;;;;1.95;0.82;;;7.00;95.50;;;;;;5010744;28;20045;-78
2021/10/23 00:43:34;;;;;;;2.90;0.93;;;7.00;95.50;;;;;;5018523;28;20037;-78
2021/10/23 00:46:02;;;;;;;2.45;0.80;;;7.00;95.50;;;;;;5019229;28;20069;-78
2021/10/23 00:48:29;;;;;;;2.15;0.80;;;7.00;95.50;;;;;;5002438;28;20042;-78
2021/10/23 00:50:56;;;;;;;3.75;1.05;;;7.00;95.50;;;;;;5006743;28;20392;-78
2021/10/23 00:53:23;;;;;;;3.03;0.65;;;7.00;95.50;;;;;;5030764;28;20069;-78
2021/10/23 00:55:50;;;;;;;2.47;0.80;;;7.00;95.50;;;;;;5021983;28;20042;-78
2021/10/23 00:58:18;;;;;;;3.13;0.88;;;7.00;95.50;;;;;;5014675;28;20418;-78
2021/10/23 01:00:45;;;;;;;1.27;0.70;;;7.00;95.50;;;;;;5021014;28;20112;-79
2021/10/23 01:03:12;;;;;;;2.15;0.70;;;7.00;95.50;;;;;;5009433;28;20049;-78
2021/10/23 01:05:40;;;;;;;2.63;1.13;;;7.00;95.50;;;;;;5012462;28;20119;-78
2021/10/23 01:08:07;;;;;;;2.03;0.68;;;6.90;95.50;;;;;;5008735;28;20037;-78
2021/10/23 01:10:34;;;;;;;2.05;0.90;;;6.90;95.50;;;;;;5009621;28;20041;-78
2021/10/23 01:13:01;;;;;;;3.63;0.90;;;6.90;95.50;;;;;;5023379;28;20496;-78
2021/10/23 01:15:31;;;;;;;3.95;1.02;;;6.90;95.50;;;;;;5020294;28;20393;-78
2021/10/23 01:18:01;;;;;;;2.75;0.80;;;6.90;95.50;;;;;;5022876;28;20109;-78
2021/10/23 01:20:30;;;;;;;2.03;0.80;;;6.80;95.50;;;;;;5019704;28;20041;-78
2021/10/23 01:22:57;;;;;;;2.08;0.73;;;6.80;95.50;;;;;;5019277;28;20073;-77
2021/10/23 01:25:27;;;;;;;2.05;0.80;;;6.80;95.50;;;;;;5018598;28;20441;-78
2021/10/23 01:27:56;;;;;;;2.75;0.80;;;6.80;95.50;;;;;;5018928;28;20433;-78
2021/10/23 01:30:23;;;;;;;1.23;0.50;;;6.70;95.50;;;;;;5019037;28;20045;-78
2021/10/23 01:32:52;;;;;;;2.53;0.60;;;6.70;95.50;;;;;;5019935;28;20071;-78
2021/10/23 01:35:21;;;;;;;1.80;0.57;;;6.60;95.50;;;;;;5023089;28;20477;-78
2021/10/23 01:37:48;;;;;;;2.00;0.50;;;6.60;95.50;;;;;;5031288;28;20060;-78
2021/10/23 01:40:22;;;;;;;0.93;0.50;;;6.50;95.50;;;;;;5022479;28;20045;-78
2021/10/23 01:42:48;;;;;;;1.83;0.60;;;6.50;95.50;;;;;;5026896;28;20099;-77
2021/10/23 01:45:15;;;;;;;1.00;0.30;;;6.40;95.50;;;;;;5024502;28;20034;-78
2021/10/23 01:47:43;;;;;;;1.42;0.47;;;6.40;95.50;;;;;;5019609;28;20105;-78
2021/10/23 01:50:17;;;;;;;1.52;0.50;;;6.40;95.50;;;;;;5023659;28;20041;-78
2021/10/23 01:52:44;;;;;;;0.55;0.30;;;6.40;95.50;;;;;;5022208;28;20041;-78
2021/10/23 01:55:13;;;;;;;0.93;0.40;;;6.30;95.50;;;;;;5015808;28;20042;-78
2021/10/23 01:57:41;;;;;;;0.90;0.40;;;6.30;95.50;;;;;;5003364;28;20124;-78
2021/10/23 02:00:10;;;;;;;1.67;0.50;;;6.30;95.50;;;;;;5019166;28;20064;-79
2021/10/23 02:02:40;;;;;;;1.73;0.40;;;6.20;95.50;;;;;;5021517;28;20421;-78
2021/10/23 02:05:09;;;;;;;1.90;0.40;;;6.20;95.50;;;;;;5019752;28;20045;-78
2021/10/23 02:07:36;;;;;;;1.27;0.40;;;6.20;95.50;;;;;;5035628;28;20076;-78
2021/10/23 02:10:05;;;;;;;1.05;0.50;;;6.20;95.60;;;;;;5024597;28;20069;-78
2021/10/23 02:12:33;;;;;;;0.50;0.28;;;6.10;95.50;;;;;;5020717;28;20057;-78
2021/10/23 02:15:01;;;;;;;0.93;0.40;;;6.10;95.80;;;;;;5012510;28;20401;-78
2021/10/23 02:17:28;;;;;;;0.70;0.30;;;6.10;95.50;;;;;;5020608;28;20042;-78
2021/10/23 02:19:55;;;;;;;0.68;0.30;;;6.10;95.50;;;;;;5023190;28;20434;-78
2021/10/23 02:22:22;;;;;;;0.82;0.30;;;6.00;95.50;;;;;;5011323;28;20482;-78
2021/10/23 02:24:49;;;;;;;1.13;0.40;;;6.00;95.50;;;;;;5012648;28;20057;-78
2021/10/23 02:27:16;;;;;;;1.15;0.35;;;6.00;95.50;;;;;;5023124;28;20048;-78
2021/10/23 02:29:43;;;;;;;0.82;0.32;;;6.00;95.60;;;;;;5025277;28;20120;-78
2021/10/23 02:32:10;;;;;;;1.10;0.40;;;6.00;95.60;;;;;;5013180;28;20044;-78
2021/10/23 02:34:38;;;;;;;1.83;0.40;;;6.00;95.70;;;;;;5024764;28;20053;-78
2021/10/23 02:37:05;;;;;;;0.98;0.43;;;6.00;95.80;;;;;;5010636;28;20042;-78
2021/10/23 02:39:33;;;;;;;0.90;0.45;;;6.10;95.80;;;;;;5025103;28;20041;-77
2021/10/23 02:42:00;;;;;;;1.40;0.65;;;6.10;95.80;;;;;;5010835;28;20046;-77
2021/10/23 02:44:27;;;;;;;2.13;0.50;;;6.10;95.80;;;;;;5022253;28;20053;-78
2021/10/23 02:46:54;;;;;;;1.40;0.40;;;6.20;95.90;;;;;;5023492;28;20033;-78
2021/10/23 02:49:21;;;;;;;0.95;0.40;;;6.20;95.80;;;;;;5019633;28;20497;-78
2021/10/23 02:51:48;;;;;;;0.95;0.40;;;6.20;95.80;;;;;;4988072;28;21776;-78
2021/10/23 02:54:16;;;;;;;1.95;0.45;;;6.30;95.70;;;;;;5014764;28;20042;-77
2021/10/23 02:56:43;;;;;;;1.25;0.60;;;6.30;95.70;;;;;;5013096;28;20052;-78
2021/10/23 02:59:13;;;;;;;1.50;0.60;;;6.30;95.70;;;;;;5023206;28;20180;-78
2021/10/23 03:01:40;;;;;;;1.27;0.70;;;6.30;95.70;;;;;;5031885;28;20056;-78
2021/10/23 03:04:08;;;;;;;1.85;0.52;;;6.30;95.60;;;;;;5013695;28;20037;-77
2021/10/23 03:06:35;;;;;;;1.30;0.50;;;6.30;95.60;;;;;;5015304;28;20354;-78
2021/10/23 03:09:03;;;;;;;1.52;0.50;;;6.20;95.60;;;;;;5017698;28;20042;-78
2021/10/23 03:11:30;;;;;;;1.90;0.73;;;6.20;95.70;;;;;;5021515;28;20402;-78
2021/10/23 03:13:57;;;;;;;1.88;0.50;;;6.30;95.70;;;;;;5020648;28;20435;-78
2021/10/23 03:16:25;;;;;;;1.40;0.40;;;6.20;95.60;;;;;;5012679;28;20048;-79
2021/10/23 03:18:52;;;;;;;1.27;0.50;;;6.20;95.60;;;;;;5017824;28;20099;-79
2021/10/23 03:21:19;;;;;;;2.08;0.50;;;6.20;95.60;;;;;;5012481;28;20128;-78
2021/10/23 03:23:46;;;;;;;1.58;0.63;;;6.20;95.60;;;;;;5034344;28;20053;-78
2021/10/23 03:26:14;;;;;;;0.85;0.40;;;6.10;95.60;;;;;;5019383;28;20042;-78
2021/10/23 03:28:44;;;;;;;0.98;0.40;;;6.20;95.60;;;;;;5009468;28;20033;-78
2021/10/23 03:31:11;;;;;;;1.58;0.60;;;6.10;95.70;;;;;;5024378;28;20107;-78
2021/10/23 03:33:38;;;;;;;1.05;0.55;;;6.20;96.00;;;;;;5010478;28;20057;-78
2021/10/23 03:36:05;;;;;;;1.38;0.40;;;6.20;95.70;;;;;;5004690;28;20037;-78
2021/10/23 03:38:33;;;;;;;1.50;0.60;;;6.30;95.70;;;;;;5018883;28;20898;-78
2021/10/23 03:41:01;;;;;;;1.48;0.40;;;6.30;95.60;;;;;;5019919;28;20050;-79
2021/10/23 03:43:28;;;;;;;1.30;0.40;;;6.30;95.60;;;;;;5002369;28;20140;-78
2021/10/23 03:45:55;;;;;;;1.45;0.63;;;6.30;95.50;;;;;;5023316;28;20033;-78
2021/10/23 03:48:23;;;;;;;1.85;0.57;;;6.20;95.50;;;;;;5016955;28;20042;-78
2021/10/23 03:50:50;;;;;;;0.88;0.50;;;6.20;95.50;;;;;;5016499;28;20121;-79
2021/10/23 03:53:17;;;;;;;1.17;0.40;;;6.10;95.50;;;;;;5022056;28;20267;-78
2021/10/23 03:55:49;;;;;;;1.00;0.50;;;6.10;95.50;;;;;;5013811;28;20559;-78
2021/10/23 03:58:15;;;;;;;1.55;0.82;;;6.00;95.70;;;;;;5020324;28;20076;-78
2021/10/23 04:00:43;;;;;;;0.70;0.40;;;6.00;95.50;;;;;;5009538;28;20557;-78
2021/10/23 04:03:10;;;;;;;1.23;0.50;;;5.90;95.50;;;;;;5022203;28;20378;-78
2021/10/23 04:05:38;;;;;;;1.42;0.55;;;5.90;95.50;;;;;;5016248;28;20465;-78
2021/10/23 04:08:05;;;;;;;1.25;0.40;;;5.90;95.50;;;;;;4994989;28;20050;-78
2021/10/23 04:10:32;;;;;;;1.83;0.60;;;5.80;95.50;;;;;;5010283;28;20446;-78
2021/10/23 04:12:59;;;;;;;1.75;0.50;;;5.80;95.50;;;;;;5031730;28;20069;-78
2021/10/23 04:15:26;;;;;;;1.10;0.50;;;5.70;95.50;;;;;;5022393;28;20401;-78
2021/10/23 04:17:53;;;;;;;1.23;0.50;;;5.70;95.50;;;;;;5019541;28;20049;-78
2021/10/23 04:20:20;;;;;;;0.90;0.50;;;5.70;95.50;;;;;;5013970;28;20826;-78
2021/10/23 04:22:47;;;;;;;1.52;0.47;;;5.70;95.50;;;;;;4990155;28;20046;-78
2021/10/23 04:25:14;;;;;;;1.25;0.60;;;5.60;95.50;;;;;;5019621;28;20046;-78
2021/10/23 04:27:41;;;;;;;1.58;0.55;;;5.60;95.50;;;;;;5011325;28;20046;-78
2021/10/23 04:30:08;;;;;;;1.48;0.80;;;5.60;95.50;;;;;;5009550;28;20151;-78
2021/10/23 04:32:35;;;;;;;0.73;0.40;;;5.60;95.50;;;;;;5025442;28;20037;-78
2021/10/23 04:35:03;;;;;;;1.05;0.70;;;5.50;95.50;;;;;;5046738;28;20120;-78
2021/10/23 04:37:31;;;;;;;3.00;0.70;;;5.50;95.50;;;;;;5030670;28;20041;-78
2021/10/23 04:39:58;;;;;;;1.60;0.60;;;5.50;95.50;;;;;;5014744;28;20037;-78
2021/10/23 04:42:26;;;;;;;1.73;0.63;;;5.50;95.50;;;;;;5017586;28;20058;-78
2021/10/23 04:44:53;;;;;;;1.13;0.60;;;5.50;95.50;;;;;;5034858;28;20046;-78
2021/10/23 04:47:20;;;;;;;1.83;0.50;;;5.50;95.50;;;;;;5008070;28;20137;-78
2021/10/23 04:49:47;;;;;;;1.95;0.65;;;5.40;95.50;;;;;;5011071;28;20045;-78
2021/10/23 04:52:14;;;;;;;0.90;0.50;;;5.40;95.50;;;;;;5011284;28;20041;-79
2021/10/23 04:54:41;;;;;;;2.60;0.63;;;5.40;95.50;;;;;;5018754;28;20121;-78
2021/10/23 04:57:08;;;;;;;0.90;0.40;;;5.40;95.50;;;;;;5021102;28;20076;-78
2021/10/23 04:59:35;;;;;;;1.70;0.60;;;5.40;95.50;;;;;;5019007;28;20449;-78
2021/10/23 05:02:01;;;;;;;1.77;0.60;;;5.40;95.60;;;;;;5003847;28;20069;-78
2021/10/23 05:04:29;;;;;;;1.40;0.68;;;5.30;95.50;;;;;;5003395;28;20041;-78
2021/10/23 05:06:56;;;;;;;1.85;0.60;;;5.30;95.80;;;;;;5020153;28;20444;-78
2021/10/23 05:09:23;;;;;;;1.00;0.40;;;5.30;95.60;;;;;;5012918;28;20088;-78
2021/10/23 05:11:50;;;;;;;1.73;0.88;;;5.30;95.50;;;;;;5019628;28;20124;-78
2021/10/23 05:14:18;;;;;;;0.85;0.40;;;5.30;95.50;;;;;;5027547;28;20061;-78
2021/10/23 05:16:45;;;;;;;1.77;0.57;;;5.30;95.50;;;;;;5024539;28;20069;-78
2021/10/23 05:19:13;;;;;;;1.38;0.47;;;5.30;95.60;;;;;;5001952;28;20046;-78
2021/10/23 05:21:40;;;;;;;1.55;0.60;;;5.30;95.60;;;;;;5021683;28;20370;-78
2021/10/23 05:24:07;;;;;;;2.60;0.50;;;5.30;95.60;;;;;;5014923;28;20033;-78
2021/10/23 05:26:34;;;;;;;2.55;0.50;;;5.30;95.60;;;;;;5022914;28;20061;-78
2021/10/23 05:29:00;;;;;;;2.20;0.70;;;5.20;95.60;;;;;;5008682;28;20108;-79
2021/10/23 05:31:28;;;;;;;2.15;0.60;;;5.20;95.60;;;;;;5022595;28;20042;-79
2021/10/23 05:33:55;;;;;;;1.27;0.52;;;5.20;95.60;;;;;;5013650;28;20132;-79
2021/10/23 05:36:22;;;;;;;1.40;0.70;;;5.20;95.60;;;;;;5013844;28;20078;-78
2021/10/23 05:38:49;;;;;;;1.45;0.70;;;5.20;95.60;;;;;;5035686;28;20058;-78
2021/10/23 05:41:16;;;;;;;1.42;0.60;;;5.20;95.60;;;;;;5022161;28;20046;-78
2021/10/23 05:43:43;;;;;;;2.22;0.80;;;5.20;95.60;;;;;;5013361;28;20044;-78
2021/10/23 05:46:10;;;;;;;1.58;0.60;;;5.20;95.60;;;;;;5019754;28;20046;-78
2021/10/23 05:48:37;;;;;;;1.45;0.50;;;5.20;95.60;;;;;;5026849;28;20095;-78
2021/10/23 05:51:05;;;;;;;1.83;0.80;;;5.20;95.60;;;;;;5024266;28;20038;-78
2021/10/23 05:53:32;;;;;;;2.10;0.75;;;5.10;95.60;;;;;;5025917;28;20045;-78
2021/10/23 05:55:59;;;;;;;1.58;0.70;;;5.10;95.50;;;;;;5021029;28;20460;-78
2021/10/23 05:58:30;;;;;;;1.33;0.60;;;5.10;95.60;;;;;;5025839;28;20045;-78
2021/10/23 06:01:05;;;;;;;1.27;0.50;;;5.10;95.60;;;;;;5012209;28;20447;-78
2021/10/23 06:03:35;;;;;;;1.88;0.73;;;5.10;95.90;;;;;;5021322;28;20289;-78
2021/10/23 06:06:03;;;;;;;1.00;0.57;;;5.10;95.70;;;;;;5024763;28;20050;-79
2021/10/23 06:08:31;;;;;;;2.05;0.60;;;5.20;95.70;;;;;;5022933;28;20485;-78
2021/10/23 06:10:59;;;;;;;2.08;0.82;;;5.20;95.70;;;;;;5013596;28;20145;-77
2021/10/23 06:13:26;;;;;;;1.48;0.70;;;5.20;95.70;;;;;;5011665;28;20068;-78
2021/10/23 06:15:53;;;;;;;1.42;0.63;;;5.20;95.70;;;;;;5012631;28;20070;-78
2021/10/23 06:18:20;;;;;;;1.20;0.60;;;5.20;96.00;;;;;;5025113;28;20037;-78
2021/10/23 06:20:47;;;;;;;2.35;0.80;;;5.20;95.70;;;;;;5026226;28;20042;-78
2021/10/23 06:23:14;;;;;;;1.63;0.70;;;5.20;95.70;;;;;;5033235;28;20084;-78
2021/10/23 06:25:41;;;;;;;4.05;0.93;;;5.20;95.70;;;;;;5023129;28;20091;-78
2021/10/23 06:28:08;;;;;;;2.33;0.70;;;5.20;95.80;;;;;;5024235;28;20049;-79
2021/10/23 06:30:35;;;;;;;1.58;0.73;;;5.30;95.80;;;;;;5019698;28;20111;-78
2021/10/23 06:33:02;;;;;;;2.28;0.80;;;5.30;95.80;;;;;;5022318;28;20498;-79
2021/10/23 06:35:30;;;;;;;1.23;0.55;;;5.30;95.80;;;;;;5029072;28;20036;-78
2021/10/23 06:37:57;;;;;;;2.17;1.05;;;5.30;95.80;;;;;;5013632;28;20100;-79
2021/10/23 06:40:24;;;;;;;1.90;0.75;;;5.30;95.80;;;;;;5039177;28;20041;-79
2021/10/23 06:42:51;;;;;;;2.22;1.02;;;5.40;95.90;;;;;;5029172;28;20065;-79
2021/10/23 06:45:18;;;;;;;1.85;0.90;;;5.40;96.10;;;;;;5023938;28;20056;-79
2021/10/23 06:47:45;;;;;;;2.00;0.80;;;5.50;95.90;;;;;;5023324;28;20099;-78
2021/10/23 06:50:14;;;;;;;2.38;0.80;;;5.50;95.90;;;;;;5028970;28;20048;-80
2021/10/23 06:52:42;;;;;;;1.67;0.77;;;5.60;96.20;;;;;;5007192;28;20388;-79
2021/10/23 06:55:09;;;;;;;1.88;0.80;;;5.70;95.90;;;;;;5025424;28;20049;-79
2021/10/23 06:57:36;;;;;;;1.60;0.50;;;5.80;95.90;;;;;;5024833;28;20473;-79
2021/10/23 07:00:05;;;;;;;1.85;0.93;;;5.90;95.90;;;;;;5008016;28;20128;-79
2021/10/23 07:02:44;;;;;;;7.00;1.88;;;6.00;95.90;;;;;;5021671;28;20522;-79
2021/10/23 07:05:14;;;;;;;3.13;1.30;;;6.10;95.80;;;;;;5025795;28;20049;-79
2021/10/23 07:07:41;;;;;;;5.00;1.70;;;6.20;95.80;;;;;;5016891;28;20054;-78
2021/10/23 07:10:09;;;;;;;2.83;1.50;;;6.30;95.80;;;;;;5021428;28;20064;-78
2021/10/23 07:12:36;;;;;;;4.68;1.60;;;6.40;95.70;;;;;;5020157;28;20066;-79
2021/10/23 07:15:04;;;;;;;4.85;2.58;;;6.50;95.60;;;;;;5023025;28;20038;-79
2021/10/23 07:17:31;;;;;;;2.88;1.80;;;6.60;95.60;;;;;;5006873;28;20437;-79
2021/10/23 07:19:58;;;;;;;3.03;1.67;;;6.70;95.60;;;;;;5022902;28;20041;-78
2021/10/23 07:22:25;;;;;;;8.55;3.10;;;6.70;95.50;;;;;;5024459;28;20049;-77
2021/10/23 07:24:52;;;;;;;5.65;2.60;;;6.80;95.50;;;;;;5006624;28;20119;-78
2021/10/23 07:27:19;;;;;;;5.88;3.13;;;6.90;95.50;;;;;;5007280;28;20076;-77
2021/10/23 07:29:46;;;;;;;6.78;3.50;;;6.90;95.40;;;;;;4994475;28;20053;-78
2021/10/23 07:32:13;;;;;;;6.53;3.58;;;6.90;95.40;;;;;;5015564;28;20057;-77
2021/10/23 07:34:40;;;;;;;11.70;5.13;;;7.00;95.50;;;;;;5029107;28;20101;-77
2021/10/23 07:37:07;;;;;;;7.80;4.68;;;7.00;95.40;;;;;;5027315;28;20050;-78
2021/10/23 07:39:34;;;;;;;6.85;4.15;;;7.00;95.70;;;;;;5027193;28;20072;-79
2021/10/23 07:42:15;;;;;;;6.05;3.70;;;7.10;95.50;;;;;;5011280;28;20041;-78
2021/10/23 07:44:42;;;;;;;8.98;4.60;;;7.10;95.40;;;;;;5020082;28;20494;-79
2021/10/23 07:47:11;;;;;;;7.85;3.85;;;7.20;95.40;;;;;;5004394;28;20104;-79
2021/10/23 07:49:39;;;;;;;7.13;3.90;;;7.20;95.40;;;;;;5026431;28;20077;-78
2021/10/23 07:52:06;;;;;;;6.50;3.90;;;7.30;95.40;;;;;;5016985;28;20046;-78
2021/10/23 07:54:33;;;;;;;7.90;3.92;;;7.30;95.40;;;;;;5034549;28;20061;-77
2021/10/23 07:57:00;;;;;;;11.45;5.85;;;7.40;95.40;;;;;;5034730;28;20030;-78
2021/10/23 07:59:27;;;;;;;8.02;5.43;;;7.50;95.30;;;;;;5029485;28;20076;-79
2021/10/23 08:01:59;;;;;;;10.90;5.43;;;7.50;95.30;;;;;;5032756;28;20045;-78
2021/10/23 08:04:31;;;;;;;8.73;5.05;;;7.60;95.30;;;;;;5021879;28;20045;-75
2021/10/23 08:07:02;;;;;;;7.43;4.75;;;7.60;95.30;;;;;;5020121;28;20687;-75
2021/10/23 08:09:50;;;;;;;7.88;4.97;;;7.70;95.30;;;;;;5030443;28;20045;-75
2021/10/23 08:12:18;;;;;;;6.03;3.78;;;7.80;95.20;;;;;;5009861;28;20141;-75
2021/10/23 08:15:19;;;;;;;;;;;;;;;;;;;;;
2021/10/23 08:18:39;;;;;;;7.47;4.50;;;7.90;95.20;;;;;;5025855;28;20039;-77
2021/10/23 08:21:32;;;;;;;6.25;3.60;;;8.00;95.20;;;;;;5026657;28;20049;-76
2021/10/23 08:24:04;;;;;;;5.72;3.38;;;8.00;95.10;;;;;;5022064;28;20095;-74
2021/10/23 08:26:48;;;;;;;7.10;4.30;;;8.10;95.20;;;;;;5021447;28;20068;-76
2021/10/23 08:29:16;;;;;;;9.35;5.35;;;8.10;95.10;;;;;;5031634;28;20081;-76
2021/10/23 08:31:43;;;;;;;6.47;3.97;;;8.20;95.10;;;;;;5016277;28;20092;-74
2021/10/23 08:34:11;;;;;;;5.15;3.20;;;8.30;95.10;;;;;;5011949;28;20056;-76
2021/10/23 08:36:38;;;;;;;7.68;4.95;;;8.30;95.10;;;;;;5005039;28;20088;-78
2021/10/23 08:39:06;;;;;;;7.00;4.88;;;8.40;95.10;;;;;;5005802;28;20048;-77
2021/10/23 08:41:34;;;;;;;7.80;4.40;;;8.50;95.00;;;;;;5019116;28;20041;-77
2021/10/23 08:44:05;;;;;;;6.80;4.22;;;8.50;95.00;;;;;;5020860;28;20038;-76
2021/10/23 08:46:36;;;;;;;7.28;4.88;;;8.50;94.90;;;;;;5008297;28;20038;-76
2021/10/23 08:49:04;;;;;;;7.03;4.40;;;8.60;95.00;;;;;;5023244;28;20152;-76
2021/10/23 08:51:32;;;;;;;8.98;5.05;;;8.60;94.90;;;;;;5015365;28;20044;-73
2021/10/23 08:54:02;;;;;;;6.40;4.28;;;8.60;94.90;;;;;;5029826;28;20551;-74
2021/10/23 08:56:37;;;;;;;6.85;3.75;;;8.70;94.90;;;;;;4990798;28;20045;-76
2021/10/23 08:59:04;;;;;;;6.15;3.30;;;8.70;94.90;;;;;;5011905;28;20033;-76
2021/10/23 09:01:31;;;;;;;5.10;2.78;;;8.80;95.00;;;;;;5019599;28;20492;-76
2021/10/23 09:03:58;;;;;;;5.00;2.45;;;8.80;94.90;;;;;;5013999;28;20045;-75
2021/10/23 09:06:39;;;;;;;4.03;2.08;;;8.90;94.90;;;;;;5032211;28;20390;-75
2021/10/23 09:09:09;;;;;;;3.47;1.63;;;8.90;94.90;;;;;;5021288;28;20046;-75
2021/10/23 09:11:38;;;;;;;3.92;2.03;;;9.00;94.90;;;;;;5042761;28;20041;-75
2021/10/23 09:14:34;;;;;;;2.58;1.45;;;9.00;94.90;;;;;;5030068;28;20038;-76
2021/10/23 09:17:06;;;;;;;;;;;9.10;94.80;;;;;;5031273;28;20042;-76
2021/10/23 09:19:49;;;;;;;3.70;1.75;;;9.10;94.80;;;;;;5028945;28;19925;-75
2021/10/23 09:22:24;;;;;;;3.53;1.88;;;9.10;94.80;;;;;;5032026;28;20046;-74
2021/10/23 09:25:14;;;;;;;2.70;1.33;;;9.20;94.80;;;;;;5009669;28;20049;-75
2021/10/23 09:28:05;;;;;;;3.13;1.25;;;9.20;94.80;;;;;;5013652;28;20049;-75
2021/10/23 09:30:38;;;;;;;2.90;1.45;;;9.30;94.70;;;;;;5016292;28;20497;-75
2021/10/23 09:33:20;;;;;;;2.95;1.65;;;9.30;94.80;;;;;;5030192;28;20049;-75
2021/10/23 09:35:55;;;;;;;3.40;1.70;;;9.40;94.80;;;;;;5016909;28;20046;-75
2021/10/23 09:38:25;;;;;;;3.88;1.70;;;9.50;94.70;;;;;;5030871;28;20470;-74
2021/10/23 09:40:56;;;;;;;3.22;1.83;;;9.50;94.70;;;;;;5030713;28;20099;-76
2021/10/23 09:43:28;;;;;;;3.38;2.20;;;9.60;94.70;;;;;;5030457;28;20049;-75
2021/10/23 09:45:58;;;;;;;4.18;1.63;;;9.60;94.70;;;;;;5030717;28;20100;-76
2021/10/23 09:48:49;;;;;;;3.90;1.73;;;9.70;94.70;;;;;;5032391;28;20046;-77
2021/10/23 09:51:22;;;;;;;3.15;1.85;;;9.80;94.50;;;;;;5030716;28;20091;-76
2021/10/23 09:53:58;;;;;;;4.35;1.98;;;9.90;94.50;;;;;;5034079;28;20040;-76
2021/10/23 09:56:29;;;;;;;3.70;1.98;;;10.00;94.50;;;;;;5034377;28;20121;-77
2021/10/23 09:59:07;;;;;;;4.03;2.10;;;10.00;94.50;;;;;;5020325;28;20041;-77
2021/10/23 10:01:42;;;;;;;4.35;2.13;;;10.10;94.40;;;;;;5031845;28;20065;-77
2021/10/23 10:04:15;;;;;;;2.75;1.55;;;10.10;94.40;;;;;;5019975;28;20041;-76
2021/10/23 10:06:46;;;;;;;4.07;1.85;;;10.20;94.40;;;;;;5034180;28;20091;-77
2021/10/23 10:09:20;;;;;;;2.60;1.25;;;10.20;94.40;;;;;;5033934;28;20175;-74
2021/10/23 10:11:49;;;;;;;4.13;2.28;;;10.30;94.40;;;;;;5031630;28;20053;-76
2021/10/23 10:14:24;;;;;;;2.58;1.60;;;10.40;94.40;;;;;;5010596;28;20498;-74
2021/10/23 10:16:55;;;;;;;3.60;1.73;;;10.50;94.30;;;;;;5013199;28;20468;-74
2021/10/23 10:19:22;;;;;;;5.85;3.63;;;10.50;94.30;;;;;;5032661;28;20045;-74
2021/10/23 10:21:51;;;;;;;7.18;5.20;;;10.50;94.10;;;;;;5017908;28;20494;-73
2021/10/23 10:24:24;;;;;;;7.85;4.85;;;10.50;94.10;;;;;;5033340;28;20497;-75
2021/10/23 10:27:07;;;;;;;6.50;3.88;;;10.60;94.20;;;;;;5038083;28;20043;-76
2021/10/23 10:30:00;;;;;;;4.93;2.88;;;10.70;94.10;;;;;;5042722;28;20424;-75
2021/10/23 10:32:40;;;;;;;4.72;2.95;;;10.90;94.10;;;;;;5034805;28;20050;-74
2021/10/23 10:35:23;;;;;;;4.20;2.50;;;10.90;94.00;;;;;;5033137;28;20041;-75
2021/10/23 10:42:59;;;;;;;4.30;2.15;;;10.80;94.00;;;;;;5034889;28;20044;-76
2021/10/23 10:45:30;;;;;;;4.85;1.98;;;10.80;94.10;;;;;;5026948;28;20707;-79
2021/10/23 10:48:07;;;;;;;3.42;1.95;;;10.70;94.10;;;;;;5033674;28;20037;-77
2021/10/23 10:50:46;;;;;;;3.10;1.83;;;10.70;94.10;;;;;;5019535;28;20041;-77
2021/10/23 10:53:15;;;;;;;3.58;2.13;;;10.60;94.20;;;;;;5011923;28;20136;-80
2021/10/23 10:55:43;;;;;;;3.53;2.00;;;10.60;94.30;;;;;;5024441;28;20034;-78
2021/10/23 10:58:11;;;;;;;4.63;2.67;;;10.70;94.40;;;;;;5021056;28;20065;-78
2021/10/23 11:00:52;;;;;;;6.43;2.90;;;10.70;94.30;;;;;;4997276;28;20038;-81
2021/10/23 11:03:36;;;;;;;8.32;5.95;;;10.80;94.30;;;;;;5028000;28;20045;-80
2021/10/23 11:09:10;;;;;;;9.00;5.17;;;11.10;94.10;;;;;;5027195;28;20056;-77
2021/10/23 11:11:49;;;;;;;8.82;4.88;;;11.20;94.00;;;;;;5033095;28;20786;-78
2021/10/23 11:14:28;;;;;;;6.78;3.80;;;11.30;94.00;;;;;;5032939;28;20042;-77
2021/10/23 11:16:55;;;;;;;11.65;6.45;;;11.40;93.90;;;;;;5034387;28;20084;-77
2021/10/23 11:19:38;;;;;;;10.18;6.13;;;11.50;93.80;;;;;;5034287;28;20087;-74
2021/10/23 11:22:12;;;;;;;8.85;5.05;;;11.60;93.70;;;;;;5037190;28;20037;-78
2021/10/23 11:24:44;;;;;;;7.32;4.47;;;11.70;93.70;;;;;;5016535;28;20449;-78
2021/10/23 11:27:31;;;;;;;5.85;3.53;;;11.80;93.70;;;;;;5016169;28;20099;-79
2021/10/23 11:30:18;;;;;;;6.95;4.50;;;11.90;93.60;;;;;;5018917;28;20046;-78
2021/10/23 11:33:03;;;;;;;9.85;6.68;;;11.90;93.60;;;;;;5033109;28;20049;-77
2021/10/23 11:35:35;;;;;;;11.55;6.47;;;11.90;93.40;;;;;;5032044;28;20038;-76
2021/10/23 11:38:04;;;;;;;7.82;5.18;;;12.00;93.50;;;;;;5032504;28;20050;-76
2021/10/23 11:40:32;;;;;;;7.72;5.32;;;12.00;93.50;;;;;;5048840;28;20048;-76
2021/10/23 11:42:59;;;;;;;7.25;4.13;;;12.10;93.50;;;;;;4999740;28;20041;-77
2021/10/23 11:45:29;;;;;;;6.50;4.10;;;12.20;93.50;;;;;;5031928;28;20076;-75
2021/10/23 11:48:04;;;;;;;5.25;3.10;;;12.20;93.40;;;;;;5033427;28;20047;-76
2021/10/23 11:50:41;;;;;;;5.75;3.15;;;12.30;93.40;;;;;;5015706;28;20140;-76
2021/10/23 11:53:22;;;;;;;4.03;2.00;;;12.40;93.40;;;;;;4999605;28;20132;-76
2021/10/23 11:56:00;;;;;;;4.00;2.28;;;12.50;93.30;;;;;;5032074;28;20148;-75
2021/10/23 11:58:29;;;;;;;3.67;1.85;;;12.60;93.30;;;;;;5033101;28;20071;-76
2021/10/23 12:01:21;;;;;;;4.82;1.77;;;12.60;93.20;;;;;;5032480;28;20037;-75
2021/10/23 12:03:50;;;;;;;4.32;2.17;;;12.70;93.10;;;;;;5033109;28;20065;-75
2021/10/23 12:06:35;;;;;;;4.20;1.70;;;12.70;93.20;;;;;;5012016;28;20058;-76
2021/10/23 12:09:18;;;;;;;7.22;2.85;;;12.70;93.20;;;;;;5036961;28;20045;-75
2021/10/23 12:12:00;;;;;;;;;;;12.80;93.10;;;;;;5031925;28;20489;-75
2021/10/23 12:14:27;;;;;;;5.93;2.72;;;12.70;93.20;;;;;;5014650;28;20388;-75
2021/10/23 12:16:57;;;;;;;6.50;3.20;;;12.70;93.10;;;;;;5031027;28;20042;-75
2021/10/23 12:19:38;;;;;;;8.30;4.45;;;12.70;93.10;;;;;;5008776;28;20171;-75
2021/10/23 12:22:05;;;;;;;8.18;4.70;;;12.70;93.00;;;;;;5035466;28;20511;-77
2021/10/23 12:24:44;;;;;;;6.70;3.47;;;12.60;93.00;;;;;;5031331;28;20120;-76
2021/10/23 12:27:25;;;;;;;4.82;3.20;;;12.60;93.00;;;;;;5031315;28;20069;-74
2021/10/23 12:30:13;;;;;;;8.80;5.85;;;12.70;93.00;;;;;;5030962;28;20088;-75
2021/10/23 12:32:45;;;;;;;7.35;4.18;;;12.70;92.80;;;;;;5030608;28;20055;-75
2021/10/23 12:35:23;;;;;;;5.90;3.30;;;12.60;92.90;;;;;;5030237;28;20542;-76
2021/10/23 12:37:57;;;;;;;7.97;2.95;;;12.60;92.90;;;;;;5026604;28;20099;-77
2021/10/23 12:40:36;;;;;;;7.20;3.13;;;12.70;93.00;;;;;;5030832;28;20037;-77
2021/10/23 12:43:06;;;;;;;6.38;3.70;;;12.70;92.90;;;;;;5023497;28;20161;-77
2021/10/23 12:45:39;;;;;;;5.38;2.70;;;12.70;92.90;;;;;;5026770;28;20711;-77
2021/10/23 12:48:15;;;;;;;6.40;3.15;;;12.70;92.90;;;;;;5023135;28;20128;-78
2021/10/23 12:50:44;;;;;;;5.35;2.67;;;12.70;92.90;;;;;;5025817;28;20037;-78
2021/10/23 12:53:11;;;;;;;8.55;3.85;;;12.70;92.90;;;;;;5029763;28;20060;-77
2021/10/23 12:55:39;;;;;;;4.75;2.17;;;12.80;92.90;;;;;;4988528;28;20179;-76
2021/10/23 12:58:07;;;;;;;7.07;2.60;;;12.80;92.90;;;;;;5023717;28;20490;-77
2021/10/23 13:00:34;;;;;;;6.10;3.22;;;12.80;92.80;;;;;;5011535;28;20038;-76
2021/10/23 13:03:01;;;;;;;5.90;3.13;;;12.90;92.90;;;;;;5007557;28;20038;-76
2021/10/23 13:05:29;;;;;;;5.30;2.80;;;12.90;93.10;;;;;;5007753;28;20038;-78
2021/10/23 13:07:56;;;;;;;4.75;2.42;;;12.90;92.80;;;;;;5011293;28;20103;-76
2021/10/23 13:10:24;;;;;;;6.88;2.25;;;12.90;92.80;;;;;;5018054;28;20034;-76
2021/10/23 13:12:51;;;;;;;7.90;4.10;;;12.90;92.80;;;;;;5024345;28;20125;-76
2021/10/23 13:15:19;;;;;;;6.40;2.85;;;12.90;92.80;;;;;;5023184;28;20064;-76
2021/10/23 13:17:46;;;;;;;5.90;3.00;;;12.90;92.90;;;;;;5022119;28;20093;-77
2021/10/23 13:20:13;;;;;;;5.90;2.83;;;12.90;92.70;;;;;;5014393;28;20061;-78